Time;durP1;ratioP1;P1;durP2;ratioP2;P2;SDS_P1;SDS_P2;PMS_P1;PMS_P2;Temp;Humidity;BMP_temperature;BMP_pressure;BME280_temperature;BME280_humidity;BME280_pressure;Samples;Min_cycle;Max_cycle;Signal;HPM_P1;HPM_P2
2022/03/18 00:02:25;;;;;;;26.60;7.85;;;;;;;;;;4787393;30;20153;-62
2022/03/18 00:04:52;;;;;;;20.58;7.80;;;;;;;;;;4788605;30;20570;-62
2022/03/18 00:07:18;;;;;;;;;;;;;;;;;;4789572;30;20051;-63
2022/03/18 00:09:44;;;;;;;26.50;8.88;;;;;;;;;;4816216;29;20012;-62
2022/03/18 00:12:11;;;;;;;25.20;8.25;;;;;;;;;;4787133;30;20051;-62
2022/03/18 00:14:40;;;;;;;24.20;8.32;;;;;;;;;;4787055;30;20055;-62
2022/03/18 00:17:07;;;;;;;22.42;7.80;;;;;;;;;;4786221;29;20135;-62
2022/03/18 00:19:33;;;;;;;22.88;7.55;;;;;;;;;;4786609;30;20358;-62
2022/03/18 00:22:01;;;;;;;24.02;8.15;;;;;;;;;;4786740;29;20074;-62
2022/03/18 00:24:33;;;;;;;25.45;8.63;;;;;;;;;;4785790;30;20148;-62
2022/03/18 00:27:03;;;;;;;20.58;7.55;;;;;;;;;;4785395;30;20402;-62
2022/03/18 00:29:30;;;;;;;24.85;9.43;;;;;;;;;;4800512;29;20061;-62
2022/03/18 00:31:56;;;;;;;30.48;9.63;;;;;;;;;;4787125;30;20059;-62
2022/03/18 00:34:22;;;;;;;25.65;9.15;;;;;;;;;;4786530;30;20055;-62
2022/03/18 00:36:48;;;;;;;22.80;9.13;;;;;;;;;;4786735;30;20062;-62
2022/03/18 00:39:16;;;;;;;23.73;9.70;;;;;;;;;;4815411;29;20063;-61
2022/03/18 00:41:42;;;;;;;26.42;9.40;;;;;;;;;;4786582;29;20120;-62
2022/03/18 00:44:08;;;;;;;;;;;;;;;;;;4786991;30;20059;-62
2022/03/18 00:46:35;;;;;;;28.63;9.93;;;;;;;;;;4786543;30;20025;-62
2022/03/18 00:52:05;;;;;;;29.63;11.00;;;;;;;;;;4786576;30;20331;-62
2022/03/18 00:54:34;;;;;;;27.73;10.85;;;;;;;;;;4785513;30;20445;-62
2022/03/18 00:57:00;;;;;;;27.83;11.02;;;;;;;;;;4786992;30;20051;-62
2022/03/18 00:59:27;;;;;;;29.83;10.70;;;;;;;;;;4785325;29;20253;-62
2022/03/18 01:01:53;;;;;;;27.75;10.38;;;;;;;;;;4836644;29;20054;-61
2022/03/18 01:04:22;;;;;;;26.60;11.30;;;;;;;;;;4836332;29;20141;-62
2022/03/18 01:06:58;;;;;;;25.48;10.63;;;;;;;;;;4822379;29;20412;-62
2022/03/18 01:09:24;;;;;;;28.05;11.07;;;;;;;;;;4822356;29;20054;-62
2022/03/18 01:11:51;;;;;;;25.30;9.82;;;;;;;;;;4821850;29;20050;-61
2022/03/18 01:14:17;;;;;;;23.85;9.68;;;;;;;;;;4822087;29;20101;-62
2022/03/18 01:16:43;;;;;;;;;;;;;;;;;;4822763;29;20094;-61
2022/03/18 01:19:09;;;;;;;27.40;9.98;;;;;;;;;;4821815;29;19925;-62
2022/03/18 01:21:36;;;;;;;29.50;11.32;;;;;;;;;;4822420;29;20087;-62
2022/03/18 01:24:03;;;;;;;32.60;11.90;;;;;;;;;;4835880;29;20062;-61
2022/03/18 01:26:29;;;;;;;25.08;10.25;;;;;;;;;;4821778;29;20385;-61
2022/03/18 01:28:56;;;;;;;27.88;11.07;;;;;;;;;;4821325;29;20050;-61
2022/03/18 01:31:23;;;;;;;22.52;10.73;;;;;;;;;;4805412;29;20062;-61
2022/03/18 01:33:49;;;;;;;26.05;10.85;;;;;;;;;;4822080;29;20134;-61
2022/03/18 01:36:15;;;;;;;30.38;10.85;;;;;;;;;;4835770;29;20093;-61
2022/03/18 01:38:41;;;;;;;29.67;11.43;;;;;;;;;;4820739;29;20057;-61
2022/03/18 01:41:07;;;;;;;30.27;11.38;;;;;;;;;;4835717;29;20054;-62
2022/03/18 01:43:38;;;;;;;30.30;10.63;;;;;;;;;;4822038;29;20459;-61
2022/03/18 01:46:05;;;;;;;23.42;11.02;;;;;;;;;;4821982;29;20061;-61
2022/03/18 01:48:31;;;;;;;30.90;10.88;;;;;;;;;;4821810;29;20145;-61
2022/03/18 01:50:57;;;;;;;28.25;11.73;;;;;;;;;;4822045;29;20055;-61
2022/03/18 01:53:23;;;;;;;31.45;11.65;;;;;;;;;;4790068;29;20056;-61
2022/03/18 01:55:49;;;;;;;27.55;11.85;;;;;;;;;;4835297;29;20050;-61
2022/03/18 01:58:15;;;;;;;23.73;11.55;;;;;;;;;;4821695;29;20057;-61
2022/03/18 02:00:41;;;;;;;22.17;10.52;;;;;;;;;;4821764;29;20098;-61
2022/03/18 02:03:07;;;;;;;26.38;11.20;;;;;;;;;;4821878;29;20097;-61
2022/03/18 02:05:34;;;;;;;28.13;12.15;;;;;;;;;;4835802;29;20480;-61
2022/03/18 02:08:01;;;;;;;29.73;11.57;;;;;;;;;;4821596;29;20046;-61
2022/03/18 02:10:27;;;;;;;26.27;11.52;;;;;;;;;;4835261;29;20141;-61
2022/03/18 02:12:53;;;;;;;28.42;12.07;;;;;;;;;;4821463;29;20121;-61
2022/03/18 02:15:19;;;;;;;28.40;11.73;;;;;;;;;;4821538;29;20050;-61
2022/03/18 02:17:46;;;;;;;27.60;12.50;;;;;;;;;;4821549;29;20137;-61
2022/03/18 02:20:12;;;;;;;25.80;11.63;;;;;;;;;;4821213;29;20113;-61
2022/03/18 02:22:38;;;;;;;26.63;13.18;;;;;;;;;;4821458;29;20061;-61
2022/03/18 02:25:05;;;;;;;27.63;12.63;;;;;;;;;;4820986;29;20058;-61
2022/03/18 02:27:31;;;;;;;;;;;;;;;;;;4821778;29;20054;-61
2022/03/18 02:29:57;;;;;;;30.10;13.43;;;;;;;;;;4804122;29;19929;-61
2022/03/18 02:32:23;;;;;;;26.38;13.18;;;;;;;;;;4821013;29;20468;-62
2022/03/18 02:34:50;;;;;;;26.70;12.63;;;;;;;;;;4821163;29;20145;-61
2022/03/18 02:37:16;;;;;;;28.88;12.95;;;;;;;;;;4804103;29;20369;-61
2022/03/18 02:39:42;;;;;;;26.55;13.07;;;;;;;;;;4821597;29;20096;-62
2022/03/18 02:42:08;;;;;;;26.13;12.90;;;;;;;;;;4824670;29;20054;-62
2022/03/18 02:44:34;;;;;;;29.38;12.60;;;;;;;;;;4824498;29;20181;-62
2022/03/18 02:47:01;;;;;;;27.00;13.05;;;;;;;;;;4839170;29;20440;-62
2022/03/18 02:49:27;;;;;;;29.48;13.43;;;;;;;;;;4824417;29;20111;-62
2022/03/18 02:51:53;;;;;;;25.92;12.73;;;;;;;;;;4838202;29;20055;-62
2022/03/18 02:54:19;;;;;;;30.65;13.27;;;;;;;;;;4824373;29;20093;-62
2022/03/18 02:56:45;;;;;;;23.95;12.32;;;;;;;;;;4824057;29;20406;-62
2022/03/18 02:59:14;;;;;;;26.92;12.95;;;;;;;;;;4808130;29;20046;-62
2022/03/18 03:01:40;;;;;;;28.35;13.43;;;;;;;;;;4824510;29;20066;-62
2022/03/18 03:04:08;;;;;;;23.48;13.13;;;;;;;;;;4824154;29;20054;-62
2022/03/18 03:09:19;;;;;;;25.77;12.93;;;;;;;;;;4824400;29;20092;-62
2022/03/18 03:11:45;;;;;;;24.65;12.80;;;;;;;;;;4824555;29;20172;-62
2022/03/18 03:14:12;;;;;;;30.48;13.23;;;;;;;;;;4823544;29;20500;-62
2022/03/18 03:16:38;;;;;;;26.38;12.10;;;;;;;;;;4823775;29;20062;-62
2022/03/18 03:19:05;;;;;;;23.33;11.15;;;;;;;;;;4823803;29;20058;-61
2022/03/18 03:21:31;;;;;;;27.92;13.07;;;;;;;;;;4823753;29;20191;-61
2022/03/18 03:23:57;;;;;;;29.75;13.95;;;;;;;;;;4807448;29;20062;-61
2022/03/18 03:26:23;;;;;;;26.27;13.60;;;;;;;;;;4823631;29;20046;-61
2022/03/18 03:28:50;;;;;;;27.42;12.75;;;;;;;;;;4823664;29;20054;-62
2022/03/18 03:31:16;;;;;;;28.65;13.18;;;;;;;;;;4807305;29;20054;-61
2022/03/18 03:33:44;;;;;;;30.80;13.13;;;;;;;;;;4823609;29;20061;-61
2022/03/18 03:36:11;;;;;;;29.13;12.85;;;;;;;;;;4823888;29;20159;-62
2022/03/18 03:38:37;;;;;;;27.40;12.57;;;;;;;;;;4823973;29;20453;-61
2022/03/18 03:41:04;;;;;;;22.73;11.43;;;;;;;;;;4823586;29;20043;-62
2022/03/18 03:43:31;;;;;;;31.02;12.57;;;;;;;;;;4823482;29;20061;-61
2022/03/18 03:45:57;;;;;;;26.10;13.00;;;;;;;;;;4823246;29;20054;-62
2022/03/18 03:48:23;;;;;;;28.77;13.05;;;;;;;;;;4837417;29;20111;-63
2022/03/18 03:50:49;;;;;;;28.05;13.50;;;;;;;;;;4823438;29;20146;-62
2022/03/18 03:53:15;;;;;;;25.02;12.32;;;;;;;;;;4826580;29;20054;-62
2022/03/18 03:55:42;;;;;;;30.95;13.30;;;;;;;;;;4826525;29;20110;-62
2022/03/18 03:58:08;;;;;;;22.38;12.57;;;;;;;;;;4826578;29;20054;-62
2022/03/18 04:00:36;;;;;;;;;;;;;;;;;;4826808;29;20097;-62
2022/03/18 04:03:02;;;;;;;;;;;;;;;;;;4825665;29;19982;-61
2022/03/18 04:05:28;;;;;;;29.60;13.52;;;;;;;;;;4810118;29;20298;-61
2022/03/18 04:07:54;;;;;;;27.05;12.75;;;;;;;;;;4826424;29;20053;-61
2022/03/18 04:10:20;;;;;;;29.67;13.60;;;;;;;;;;4826247;29;20484;-61
2022/03/18 04:12:46;;;;;;;29.13;12.35;;;;;;;;;;4826258;29;20141;-61
2022/03/18 04:15:12;;;;;;;23.95;13.20;;;;;;;;;;4826236;29;20046;-61
2022/03/18 04:17:39;;;;;;;29.30;13.90;;;;;;;;;;4826176;29;20050;-62
2022/03/18 04:20:06;;;;;;;27.70;13.30;;;;;;;;;;4826220;29;20092;-62
2022/03/18 04:22:32;;;;;;;;;;;;;;;;;;4826688;29;20062;-62
2022/03/18 04:24:58;;;;;;;28.52;13.02;;;;;;;;;;4826324;29;19969;-61
2022/03/18 04:27:25;;;;;;;27.65;13.20;;;;;;;;;;4826296;29;20050;-61
2022/03/18 04:29:53;;;;;;;27.42;14.10;;;;;;;;;;4810044;29;20168;-61
2022/03/18 04:32:19;;;;;;;24.05;13.48;;;;;;;;;;4825693;29;20492;-62
2022/03/18 04:34:45;;;;;;;24.88;13.25;;;;;;;;;;4825845;29;20109;-61
2022/03/18 04:37:11;;;;;;;28.23;13.38;;;;;;;;;;4826012;29;20054;-62
2022/03/18 04:39:37;;;;;;;30.27;12.88;;;;;;;;;;4825918;29;20085;-61
2022/03/18 04:42:03;;;;;;;25.73;13.35;;;;;;;;;;4825931;29;20106;-61
2022/03/18 04:44:29;;;;;;;;;;;;;;;;;;4826452;29;20054;-61
2022/03/18 04:46:55;;;;;;;27.60;13.80;;;;;;;;;;4825063;29;19924;-61
2022/03/18 04:49:22;;;;;;;25.83;13.88;;;;;;;;;;4825712;29;20043;-61
2022/03/18 04:51:48;;;;;;;27.23;13.70;;;;;;;;;;4826163;29;20054;-61
2022/03/18 04:54:14;;;;;;;25.23;13.50;;;;;;;;;;4825695;29;20411;-61
2022/03/18 04:59:25;;;;;;;25.70;13.85;;;;;;;;;;4825867;29;20055;-62
2022/03/18 05:01:51;;;;;;;25.63;13.98;;;;;;;;;;4825695;29;20065;-62
2022/03/18 05:04:17;;;;;;;24.02;13.50;;;;;;;;;;4825347;29;20145;-61
2022/03/18 05:06:43;;;;;;;29.95;13.93;;;;;;;;;;4825517;29;20046;-61
2022/03/18 05:09:09;;;;;;;27.67;13.73;;;;;;;;;;4825428;29;20058;-60
2022/03/18 05:11:35;;;;;;;27.77;13.48;;;;;;;;;;4825472;29;20046;-60
2022/03/18 05:14:01;;;;;;;29.08;14.50;;;;;;;;;;4825295;29;20060;-61
2022/03/18 05:16:27;;;;;;;28.20;14.18;;;;;;;;;;4826088;29;20051;-62
2022/03/18 05:18:57;;;;;;;26.80;14.23;;;;;;;;;;4825508;29;20086;-61
2022/03/18 05:21:23;;;;;;;29.13;14.20;;;;;;;;;;4825297;29;20050;-62
2022/03/18 05:23:49;;;;;;;24.67;13.93;;;;;;;;;;4825113;29;20059;-62
2022/03/18 05:26:15;;;;;;;24.08;14.52;;;;;;;;;;4825215;29;20090;-61
2022/03/18 05:28:42;;;;;;;23.40;13.35;;;;;;;;;;4825037;29;20411;-62
2022/03/18 05:31:08;;;;;;;26.38;13.90;;;;;;;;;;4808835;29;20058;-62
2022/03/18 05:33:34;;;;;;;;;;;;;;;;;;4825038;29;20050;-61
2022/03/18 05:36:00;;;;;;;22.75;14.70;;;;;;;;;;4807778;29;19925;-61
2022/03/18 05:38:26;;;;;;;24.17;14.48;;;;;;;;;;4824012;29;20050;-61
2022/03/18 05:40:53;;;;;;;24.95;14.85;;;;;;;;;;4807614;29;20137;-61
2022/03/18 05:43:19;;;;;;;26.83;15.50;;;;;;;;;;4823794;29;20053;-61
2022/03/18 05:45:48;;;;;;;31.00;15.05;;;;;;;;;;4792046;29;20050;-61
2022/03/18 05:48:14;;;;;;;25.77;15.07;;;;;;;;;;4836565;29;20478;-61
2022/03/18 05:50:40;;;;;;;28.65;15.98;;;;;;;;;;4822646;29;20102;-61
2022/03/18 05:53:06;;;;;;;26.67;15.90;;;;;;;;;;4836227;29;20500;-61
2022/03/18 05:58:23;;;;;;;28.90;16.15;;;;;;;;;;4823078;29;20054;-61
2022/03/18 06:00:49;;;;;;;28.27;15.82;;;;;;;;;;4822735;29;20145;-61
2022/03/18 06:03:15;;;;;;;30.83;16.42;;;;;;;;;;4806631;29;20058;-61
2022/03/18 06:05:42;;;;;;;27.60;16.30;;;;;;;;;;4822769;29;20460;-61
2022/03/18 06:13:52;;;;;;;29.73;16.10;;;;;;;;;;4822368;29;20483;-61
2022/03/18 06:16:18;;;;;;;26.45;16.88;;;;;;;;;;4822713;29;20073;-61
2022/03/18 06:18:44;;;;;;;29.50;16.63;;;;;;;;;;4822859;29;20072;-61
2022/03/18 06:21:12;;;;;;;33.97;17.70;;;;;;;;;;4822355;29;20510;-61
2022/03/18 06:23:38;;;;;;;27.85;16.90;;;;;;;;;;4836434;29;20062;-61
2022/03/18 06:26:05;;;;;;;26.60;16.15;;;;;;;;;;4791100;29;20062;-61
2022/03/18 06:28:31;;;;;;;27.90;16.27;;;;;;;;;;4822559;29;20403;-61
2022/03/18 06:30:57;;;;;;;27.05;17.25;;;;;;;;;;4823210;29;20054;-61
2022/03/18 06:33:23;;;;;;;31.33;17.58;;;;;;;;;;4822384;29;20112;-61
2022/03/18 06:35:49;;;;;;;26.23;16.58;;;;;;;;;;4822450;29;20403;-61
2022/03/18 06:38:15;;;;;;;30.00;17.50;;;;;;;;;;4822162;29;20452;-62
2022/03/18 06:40:43;;;;;;;28.80;17.38;;;;;;;;;;4836717;29;20133;-61
2022/03/18 06:43:09;;;;;;;34.38;17.88;;;;;;;;;;4822392;29;20451;-62
2022/03/18 06:45:35;;;;;;;30.05;17.17;;;;;;;;;;4836023;29;20513;-62
2022/03/18 06:48:01;;;;;;;30.35;17.77;;;;;;;;;;4821873;29;20084;-62
2022/03/18 06:50:28;;;;;;;27.27;17.30;;;;;;;;;;4822159;29;20519;-61
2022/03/18 06:52:54;;;;;;;26.90;16.55;;;;;;;;;;4822048;29;20548;-61
2022/03/18 06:55:21;;;;;;;36.70;20.17;;;;;;;;;;4836027;29;20368;-61
2022/03/18 06:57:47;;;;;;;35.35;19.67;;;;;;;;;;4822099;29;20054;-61
2022/03/18 07:00:14;;;;;;;36.83;18.70;;;;;;;;;;4821718;29;20062;-61
2022/03/18 07:02:40;;;;;;;33.72;18.27;;;;;;;;;;4821910;29;20392;-61
2022/03/18 07:05:12;;;;;;;32.33;20.63;;;;;;;;;;4792658;29;20111;-61
2022/03/18 07:07:40;;;;;;;31.88;20.35;;;;;;;;;;4835841;29;20409;-61
2022/03/18 07:10:06;;;;;;;33.72;20.50;;;;;;;;;;4822076;29;20133;-61
2022/03/18 07:12:33;;;;;;;34.33;20.02;;;;;;;;;;4820539;29;20184;-62
2022/03/18 07:14:59;;;;;;;34.72;20.15;;;;;;;;;;4821716;29;20062;-62
2022/03/18 07:20:12;;;;;;;31.42;19.33;;;;;;;;;;4822169;29;20396;-61
2022/03/18 07:22:40;;;;;;;31.88;19.75;;;;;;;;;;4822224;29;20058;-61
2022/03/18 07:25:07;;;;;;;40.63;20.38;;;;;;;;;;4821668;29;20076;-62
2022/03/18 07:27:33;;;;;;;30.88;20.23;;;;;;;;;;4839137;29;20511;-62
2022/03/18 07:29:59;;;;;;;34.95;21.90;;;;;;;;;;4825135;29;20047;-63
2022/03/18 07:32:25;;;;;;;32.97;20.52;;;;;;;;;;4809492;29;20476;-62
2022/03/18 07:34:51;;;;;;;33.97;20.02;;;;;;;;;;4825515;29;20053;-63
2022/03/18 07:37:18;;;;;;;41.63;21.70;;;;;;;;;;4825115;29;20054;-63
2022/03/18 07:39:44;;;;;;;41.20;22.05;;;;;;;;;;4825146;29;20476;-62
2022/03/18 07:42:11;;;;;;;38.80;21.75;;;;;;;;;;4824694;29;20500;-61
2022/03/18 07:44:37;;;;;;;34.92;21.75;;;;;;;;;;4824976;29;20141;-63
2022/03/18 07:47:03;;;;;;;37.88;22.25;;;;;;;;;;4808661;29;20061;-63
2022/03/18 07:49:29;;;;;;;38.72;22.02;;;;;;;;;;4825355;29;20170;-62
2022/03/18 07:51:55;;;;;;;39.97;22.58;;;;;;;;;;4809255;29;20110;-63
2022/03/18 07:54:21;;;;;;;38.30;21.73;;;;;;;;;;4839023;29;20089;-61
2022/03/18 07:56:48;;;;;;;34.75;21.75;;;;;;;;;;4824556;29;20062;-61
2022/03/18 07:59:14;;;;;;;40.05;22.35;;;;;;;;;;4824600;29;20066;-62
2022/03/18 08:01:43;;;;;;;41.25;21.42;;;;;;;;;;4825046;29;20058;-62
2022/03/18 08:04:12;;;;;;;40.05;21.52;;;;;;;;;;4808530;29;20050;-60
2022/03/18 08:06:39;;;;;;;38.78;21.80;;;;;;;;;;4824733;29;20054;-62
2022/03/18 08:09:05;;;;;;;40.95;19.73;;;;;;;;;;4824055;29;20353;-62
2022/03/18 08:11:31;;;;;;;35.85;20.75;;;;;;;;;;4838226;29;20054;-62
2022/03/18 08:13:57;;;;;;;38.15;21.30;;;;;;;;;;4823939;29;20102;-62
2022/03/18 08:16:24;;;;;;;38.80;20.55;;;;;;;;;;4823081;29;20472;-61
2022/03/18 08:18:51;;;;;;;37.90;19.75;;;;;;;;;;4824089;29;20061;-61
2022/03/18 08:21:18;;;;;;;41.67;20.38;;;;;;;;;;4823610;29;20514;-61
2022/03/18 08:23:45;;;;;;;;;;;;;;;;;;4838496;29;20483;-61
2022/03/18 08:26:11;;;;;;;40.83;19.48;;;;;;;;;;4824321;29;19931;-61
2022/03/18 08:28:38;;;;;;;35.65;20.40;;;;;;;;;;4824036;29;20054;-61
2022/03/18 08:31:04;;;;;;;40.22;20.50;;;;;;;;;;4824408;29;20146;-62
2022/03/18 08:33:34;;;;;;;36.78;19.67;;;;;;;;;;4807639;29;20058;-61
2022/03/18 08:36:01;;;;;;;37.55;20.88;;;;;;;;;;4823639;29;20099;-62
2022/03/18 08:38:27;;;;;;;41.45;19.63;;;;;;;;;;4823267;29;20099;-61
2022/03/18 08:40:53;;;;;;;33.55;18.90;;;;;;;;;;4838197;29;20069;-62
2022/03/18 08:43:19;;;;;;;38.00;19.27;;;;;;;;;;4822461;29;20485;-62
2022/03/18 08:45:46;;;;;;;35.40;19.42;;;;;;;;;;4823666;29;20054;-62
2022/03/18 08:48:12;;;;;;;40.45;18.77;;;;;;;;;;4823280;29;20053;-62
2022/03/18 08:50:39;;;;;;;37.70;18.00;;;;;;;;;;4823580;29;20047;-61
2022/03/18 08:53:09;;;;;;;32.65;17.13;;;;;;;;;;4823386;29;20154;-63
2022/03/18 08:55:36;;;;;;;35.90;17.65;;;;;;;;;;4808351;29;20054;-63
2022/03/18 08:58:04;;;;;;;35.50;16.85;;;;;;;;;;4824075;29;20055;-62
2022/03/18 09:00:30;;;;;;;34.13;17.90;;;;;;;;;;4777253;29;20054;-62
2022/03/18 09:02:56;;;;;;;44.80;17.75;;;;;;;;;;4823388;29;20055;-61
2022/03/18 09:05:24;;;;;;;40.28;17.10;;;;;;;;;;4823086;29;20050;-61
2022/03/18 09:07:50;;;;;;;39.10;17.35;;;;;;;;;;4822879;29;20492;-61
2022/03/18 09:10:16;;;;;;;36.80;17.40;;;;;;;;;;4823247;29;20437;-61
2022/03/18 09:12:46;;;;;;;31.42;15.50;;;;;;;;;;4806903;29;20138;-61
2022/03/18 09:15:13;;;;;;;38.20;16.48;;;;;;;;;;4837323;29;20095;-61
2022/03/18 09:17:39;;;;;;;;;;;;;;;;;;4823810;29;20145;-61
2022/03/18 09:20:06;;;;;;;32.67;15.77;;;;;;;;;;4807792;29;19924;-62
2022/03/18 09:22:32;;;;;;;35.33;15.95;;;;;;;;;;4807102;29;20058;-61
2022/03/18 09:24:58;;;;;;;38.80;16.63;;;;;;;;;;4823315;29;20129;-62
2022/03/18 09:27:24;;;;;;;32.35;15.38;;;;;;;;;;4837660;29;20054;-62
2022/03/18 09:29:50;;;;;;;28.58;15.60;;;;;;;;;;4837648;29;20051;-62
2022/03/18 09:32:16;;;;;;;34.25;16.65;;;;;;;;;;4823167;29;20089;-61
2022/03/18 09:34:43;;;;;;;38.30;17.75;;;;;;;;;;4823153;29;20050;-61
2022/03/18 09:37:09;;;;;;;33.38;17.25;;;;;;;;;;4823139;29;20057;-61
2022/03/18 09:39:35;;;;;;;35.33;16.52;;;;;;;;;;4836796;29;20133;-61
2022/03/18 09:42:01;;;;;;;32.92;14.65;;;;;;;;;;4836785;29;20058;-61
2022/03/18 09:44:27;;;;;;;;;;;;;;;;;;4823138;29;20100;-61
2022/03/18 09:46:53;;;;;;;34.42;15.63;;;;;;;;;;4821544;29;19996;-62
2022/03/18 09:49:20;;;;;;;30.65;13.93;;;;;;;;;;4821866;29;20057;-61
2022/03/18 09:51:47;;;;;;;31.20;14.60;;;;;;;;;;4822771;29;20046;-61
2022/03/18 09:54:14;;;;;;;35.35;14.95;;;;;;;;;;4836384;29;20116;-61
2022/03/18 09:56:41;;;;;;;31.15;14.77;;;;;;;;;;4836891;29;20077;-62
2022/03/18 09:59:07;;;;;;;32.50;13.63;;;;;;;;;;4806379;29;20050;-63
2022/03/18 10:01:33;;;;;;;30.30;13.27;;;;;;;;;;4823281;29;20066;-62
2022/03/18 10:04:07;;;;;;;31.98;12.77;;;;;;;;;;4823026;29;20068;-61
2022/03/18 10:06:34;;;;;;;32.30;12.75;;;;;;;;;;4806496;29;20097;-62
2022/03/18 10:09:00;;;;;;;35.63;12.82;;;;;;;;;;4836539;29;20077;-63
2022/03/18 10:11:27;;;;;;;32.55;11.80;;;;;;;;;;4822387;29;20051;-63
2022/03/18 10:13:56;;;;;;;26.15;12.10;;;;;;;;;;4836689;29;20066;-62
2022/03/18 10:16:42;;;;;;;30.60;12.73;;;;;;;;;;4822601;29;20061;-63
2022/03/18 10:19:18;;;;;;;31.58;12.15;;;;;;;;;;4822386;29;20504;-65
2022/03/18 10:21:51;;;;;;;31.92;12.40;;;;;;;;;;4836702;29;20344;-64
2022/03/18 10:24:17;;;;;;;31.08;11.90;;;;;;;;;;4822281;29;20129;-64
2022/03/18 10:26:43;;;;;;;24.63;11.27;;;;;;;;;;4822314;29;20099;-64
2022/03/18 10:29:11;;;;;;;33.28;12.27;;;;;;;;;;4821574;29;20062;-64
2022/03/18 10:31:39;;;;;;;39.67;12.52;;;;;;;;;;4821954;29;20183;-64
2022/03/18 10:37:04;;;;;;;29.88;10.65;;;;;;;;;;4822744;29;20062;-63
2022/03/18 10:39:30;;;;;;;33.13;10.55;;;;;;;;;;4820939;29;20063;-64
2022/03/18 10:42:00;;;;;;;26.70;9.90;;;;;;;;;;4822106;29;20120;-62
2022/03/18 10:44:26;;;;;;;30.45;11.10;;;;;;;;;;4806365;29;20089;-63
2022/03/18 10:46:53;;;;;;;24.83;9.57;;;;;;;;;;4805765;29;20069;-62
2022/03/18 10:49:24;;;;;;;25.65;9.77;;;;;;;;;;4790786;29;20133;-63
2022/03/18 10:51:51;;;;;;;31.25;10.55;;;;;;;;;;4806469;29;20065;-63
2022/03/18 10:54:24;;;;;;;31.60;10.43;;;;;;;;;;4821499;29;20062;-63
2022/03/18 10:56:58;;;;;;;25.05;9.55;;;;;;;;;;4822100;29;20090;-63
2022/03/18 10:59:27;;;;;;;23.92;9.40;;;;;;;;;;4821788;29;20487;-63
2022/03/18 11:01:54;;;;;;;26.67;9.18;;;;;;;;;;4789939;29;20197;-63
2022/03/18 11:04:21;;;;;;;27.17;9.23;;;;;;;;;;4789562;30;20059;-63
2022/03/18 11:11:07;;;;;;;22.98;7.35;;;;;;;;;;4789337;30;20063;-62
2022/03/18 11:12:23;;;;;;;24.20;7.60;;;;;;;;;;4788959;29;20066;-69
2022/03/18 11:14:53;;;;;;;25.67;8.13;;;;;;;;;;4789282;29;20055;-67
2022/03/18 11:17:20;;;;;;;20.73;7.35;;;;;;;;;;4789273;29;20051;-61
2022/03/18 11:19:46;;;;;;;27.02;9.38;;;;;;;;;;4817922;29;20150;-62
2022/03/18 11:22:16;;;;;;;26.15;9.88;;;;;;;;;;4788131;30;20144;-64
2022/03/18 11:24:43;;;;;;;30.58;10.57;;;;;;;;;;4818786;29;20138;-62
2022/03/18 11:27:11;;;;;;;24.90;9.70;;;;;;;;;;4789030;30;20120;-62
2022/03/18 11:29:38;;;;;;;29.02;9.48;;;;;;;;;;4788834;29;20062;-63
2022/03/18 11:32:04;;;;;;;;;;;;;;;;;;4788366;30;20203;-62
2022/03/18 11:34:30;;;;;;;27.00;10.18;;;;;;;;;;4788770;30;19965;-62
2022/03/18 11:37:11;;;;;;;24.42;10.15;;;;;;;;;;4789210;30;20484;-62
2022/03/18 11:39:38;;;;;;;28.02;9.45;;;;;;;;;;4787612;30;20130;-62
2022/03/18 11:42:09;;;;;;;24.40;8.55;;;;;;;;;;4789033;29;20081;-62
2022/03/18 11:44:42;;;;;;;24.48;9.40;;;;;;;;;;4789114;29;20140;-65
2022/03/18 11:47:20;;;;;;;28.35;9.05;;;;;;;;;;4788854;29;20055;-64
2022/03/18 11:49:50;;;;;;;22.73;8.75;;;;;;;;;;4788659;30;20138;-66
2022/03/18 11:52:16;;;;;;;30.73;10.38;;;;;;;;;;4787431;30;20047;-64
2022/03/18 11:55:00;;;;;;;25.58;9.73;;;;;;;;;;4787597;30;20058;-66
2022/03/18 11:57:31;;;;;;;29.85;9.77;;;;;;;;;;4788553;30;20059;-63
2022/03/18 12:00:00;;;;;;;29.98;8.63;;;;;;;;;;4788309;29;20616;-65
2022/03/18 12:02:39;;;;;;;27.35;8.18;;;;;;;;;;4817046;29;20070;-62
2022/03/18 12:05:05;;;;;;;24.55;8.45;;;;;;;;;;4788539;30;20492;-62
2022/03/18 12:07:46;;;;;;;27.70;8.68;;;;;;;;;;4788503;29;20043;-62
2022/03/18 12:10:15;;;;;;;21.02;7.82;;;;;;;;;;4788360;30;20044;-62
2022/03/18 12:12:43;;;;;;;22.80;8.07;;;;;;;;;;4787051;29;20055;-63
2022/03/18 12:15:10;;;;;;;27.48;7.75;;;;;;;;;;4788504;30;20047;-63
2022/03/18 12:17:41;;;;;;;25.20;7.82;;;;;;;;;;4788560;29;20111;-62
2022/03/18 12:20:08;;;;;;;29.95;7.75;;;;;;;;;;4788597;30;20131;-63
2022/03/18 12:22:37;;;;;;;26.92;8.32;;;;;;;;;;4788105;29;20461;-64
2022/03/18 12:25:04;;;;;;;26.52;7.90;;;;;;;;;;4788026;30;20047;-61
2022/03/18 12:27:33;;;;;;;27.13;8.35;;;;;;;;;;4786627;30;20051;-61
2022/03/18 12:30:00;;;;;;;28.83;8.73;;;;;;;;;;4787860;29;20052;-63
2022/03/18 12:32:26;;;;;;;22.45;8.35;;;;;;;;;;4787862;30;20090;-62
2022/03/18 12:34:52;;;;;;;;;;;;;;;;;;4788413;30;20051;-62
2022/03/18 12:37:21;;;;;;;27.42;7.88;;;;;;;;;;4787652;30;19982;-62
2022/03/18 12:39:48;;;;;;;22.48;8.50;;;;;;;;;;4787912;29;20051;-62
2022/03/18 12:42:14;;;;;;;30.23;8.98;;;;;;;;;;4787944;29;20058;-62
2022/03/18 12:44:46;;;;;;;23.95;8.88;;;;;;;;;;4787897;30;20051;-61
2022/03/18 12:47:12;;;;;;;25.02;8.10;;;;;;;;;;4788228;30;20123;-62
2022/03/18 12:49:39;;;;;;;29.77;8.60;;;;;;;;;;4787589;29;20508;-63
2022/03/18 12:52:09;;;;;;;26.10;7.47;;;;;;;;;;4787767;29;20058;-62
2022/03/18 12:54:36;;;;;;;26.20;8.88;;;;;;;;;;4787492;30;20062;-63
2022/03/18 12:57:02;;;;;;;29.15;8.30;;;;;;;;;;4787128;30;20455;-63
2022/03/18 12:59:29;;;;;;;28.58;7.55;;;;;;;;;;4787014;30;20385;-63
2022/03/18 13:01:56;;;;;;;28.73;7.82;;;;;;;;;;4816174;29;20116;-63
2022/03/18 13:04:23;;;;;;;28.63;7.72;;;;;;;;;;4787286;30;20066;-64
2022/03/18 13:06:56;;;;;;;29.50;6.97;;;;;;;;;;4788068;30;20111;-62
2022/03/18 13:09:22;;;;;;;30.33;7.60;;;;;;;;;;4787486;29;20092;-62
2022/03/18 13:11:49;;;;;;;27.35;7.18;;;;;;;;;;4787180;30;20051;-62
2022/03/18 13:14:28;;;;;;;28.98;7.75;;;;;;;;;;4787392;29;20055;-62
2022/03/18 13:16:55;;;;;;;25.98;7.07;;;;;;;;;;4787360;30;20047;-63
2022/03/18 13:19:35;;;;;;;24.20;6.93;;;;;;;;;;4787018;29;20061;-62
2022/03/18 13:22:02;;;;;;;26.38;6.75;;;;;;;;;;4787153;30;20051;-62
2022/03/18 13:24:28;;;;;;;29.23;7.38;;;;;;;;;;4787281;29;20067;-62
2022/03/18 13:26:54;;;;;;;23.75;6.68;;;;;;;;;;4787494;30;20347;-60
2022/03/18 13:32:50;;;;;;;26.15;7.95;;;;;;;;;;4787066;30;20130;-62
2022/03/18 13:34:51;;;;;;;23.08;6.55;;;;;;;;;;4785837;30;20111;-61
2022/03/18 13:37:18;;;;;;;29.17;6.25;;;;;;;;;;4785590;30;20178;-61
2022/03/18 13:39:45;;;;;;;24.05;6.65;;;;;;;;;;4787652;29;20170;-62
2022/03/18 13:42:21;;;;;;;19.85;6.68;;;;;;;;;;4786179;30;20142;-62
2022/03/18 13:44:48;;;;;;;21.50;6.32;;;;;;;;;;4786917;29;20055;-62
2022/03/18 13:47:14;;;;;;;27.48;6.90;;;;;;;;;;4787411;30;20058;-62
2022/03/18 13:49:52;;;;;;;30.23;7.03;;;;;;;;;;4786519;30;20059;-61
2022/03/18 13:52:18;;;;;;;23.02;6.07;;;;;;;;;;4786675;30;20062;-61
2022/03/18 13:54:47;;;;;;;29.10;6.50;;;;;;;;;;4786561;30;20058;-61
2022/03/18 13:57:14;;;;;;;22.55;6.43;;;;;;;;;;4785466;30;20134;-61
2022/03/18 13:59:50;;;;;;;27.30;6.07;;;;;;;;;;4786581;29;20077;-62
2022/03/18 14:02:21;;;;;;;30.55;6.68;;;;;;;;;;4814092;29;20066;-61
2022/03/18 14:04:50;;;;;;;22.35;6.43;;;;;;;;;;4823329;29;20074;-62
2022/03/18 14:07:16;;;;;;;25.83;6.15;;;;;;;;;;4822699;29;20061;-62
2022/03/18 14:10:02;;;;;;;25.73;6.40;;;;;;;;;;4836874;29;20491;-61
2022/03/18 14:12:28;;;;;;;26.63;6.13;;;;;;;;;;4823186;29;20133;-61
2022/03/18 14:14:54;;;;;;;;;;;;;;;;;;4823243;29;20060;-61
2022/03/18 14:17:24;;;;;;;21.60;6.25;;;;;;;;;;4821454;29;19925;-63
2022/03/18 14:19:53;;;;;;;31.40;7.13;;;;;;;;;;4823102;29;20042;-62
2022/03/18 14:22:39;;;;;;;26.50;5.97;;;;;;;;;;4822701;29;20513;-62
2022/03/18 14:25:11;;;;;;;27.95;6.25;;;;;;;;;;4822784;29;20050;-62
2022/03/18 14:27:41;;;;;;;27.23;6.63;;;;;;;;;;4822696;29;20495;-62
2022/03/18 14:30:12;;;;;;;21.75;5.95;;;;;;;;;;4837270;29;20117;-62
2022/03/18 14:32:39;;;;;;;20.10;6.22;;;;;;;;;;4822515;29;20047;-63
2022/03/18 14:35:05;;;;;;;25.88;5.32;;;;;;;;;;4821803;29;20050;-62
2022/03/18 14:37:32;;;;;;;;;;;;;;;;;;4822845;29;20111;-61
2022/03/18 14:39:58;;;;;;;22.00;5.53;;;;;;;;;;4806321;29;19932;-62
2022/03/18 14:42:27;;;;;;;17.25;5.07;;;;;;;;;;4822436;29;20073;-61
2022/03/18 14:44:56;;;;;;;15.80;4.57;;;;;;;;;;4822365;29;20382;-62
2022/03/18 14:47:22;;;;;;;21.52;5.47;;;;;;;;;;4821309;29;20480;-61
2022/03/18 14:49:48;;;;;;;;;;;;;;;;;;4823104;29;20062;-61
2022/03/18 14:52:14;;;;;;;22.98;5.93;;;;;;;;;;4822183;29;20377;-62
2022/03/18 14:57:25;;;;;;;21.58;4.78;;;;;;;;;;4822903;29;20051;-62
2022/03/18 14:59:53;;;;;;;21.08;4.88;;;;;;;;;;4822434;29;20134;-62